createdAt,value
2018-05-04T00:02:24.213Z,7.65
2018-05-04T00:04:52.601Z,7.58
2018-05-04T00:07:20.213Z,7.60
2018-05-04T00:09:47.782Z,7.58
2018-05-04T00:12:15.346Z,7.56
2018-05-04T00:14:42.918Z,7.52
2018-05-04T00:17:11.381Z,7.56
2018-05-04T00:19:38.981Z,7.53
2018-05-04T00:22:06.593Z,7.61
2018-05-04T00:24:34.164Z,7.44
2018-05-04T00:27:01.730Z,7.36
2018-05-04T00:29:29.330Z,7.31
2018-05-04T00:31:56.901Z,7.27
2018-05-04T00:34:24.510Z,7.19
2018-05-04T00:36:52.997Z,7.12
2018-05-04T00:39:21.341Z,7.09
2018-05-04T00:41:48.905Z,7.02
2018-05-04T00:44:16.498Z,6.98
2018-05-04T00:46:44.064Z,6.94
2018-05-04T00:49:11.659Z,6.92
2018-05-04T00:51:40.006Z,6.88
2018-05-04T00:54:19.353Z,6.86
2018-05-04T00:56:47.837Z,6.82
2018-05-04T00:59:16.234Z,6.83
2018-05-04T01:01:43.801Z,6.73
2018-05-04T01:04:11.370Z,6.72
2018-05-04T01:06:39.836Z,6.72
2018-05-04T01:09:08.189Z,6.79
2018-05-04T01:11:36.580Z,6.78
2018-05-04T01:14:05.064Z,6.72
2018-05-04T01:16:33.551Z,6.72
2018-05-04T01:19:01.121Z,6.63
2018-05-04T01:21:28.718Z,6.62
2018-05-04T01:23:56.290Z,6.65
2018-05-04T01:26:23.892Z,6.53
2018-05-04T01:28:51.457Z,6.50
2018-05-04T01:31:19.128Z,6.47
2018-05-04T01:33:46.705Z,6.45
2018-05-04T01:36:15.125Z,6.41
2018-05-04T01:38:42.764Z,6.33
2018-05-04T01:41:11.109Z,6.26
2018-05-04T01:43:39.509Z,6.22
2018-05-04T01:46:08.009Z,6.18
2018-05-04T01:48:36.737Z,6.19
2018-05-04T01:51:05.129Z,6.20
2018-05-04T01:53:34.050Z,6.26
2018-05-04T01:56:01.657Z,6.23
2018-05-04T01:58:29.260Z,6.22
2018-05-04T02:00:57.778Z,6.20
2018-05-04T02:03:25.346Z,6.21
2018-05-04T02:05:53.997Z,6.08
2018-05-04T02:08:22.354Z,6.05
2018-05-04T02:10:50.757Z,6.04
2018-05-04T02:13:19.034Z,5.99
2018-05-04T02:15:47.407Z,5.92
2018-05-04T02:18:15.072Z,5.90
2018-05-04T02:20:42.645Z,5.83
2018-05-04T02:23:10.218Z,5.79
2018-05-04T02:25:37.787Z,5.72
2018-05-04T02:28:05.364Z,5.68
2018-05-04T02:30:34.080Z,5.65
2018-05-04T02:33:01.685Z,5.61
2018-05-04T02:35:29.259Z,5.63
2018-05-04T02:37:56.835Z,5.67
2018-05-04T02:40:24.486Z,5.70
2018-05-04T02:42:52.869Z,5.73
2018-05-04T02:45:21.161Z,5.77
2018-05-04T02:47:49.526Z,5.71
2018-05-04T02:50:17.414Z,5.66
2018-05-04T02:52:44.986Z,5.68
2018-05-04T02:55:13.453Z,5.66
2018-05-04T02:57:41.935Z,5.67
2018-05-04T03:00:10.423Z,5.54
2018-05-04T03:02:38.773Z,5.51
2018-05-04T03:05:06.358Z,5.53
2018-05-04T03:07:33.925Z,5.48
2018-05-04T03:10:02.410Z,5.41
2018-05-04T03:12:30.791Z,5.45
2018-05-04T03:14:59.137Z,5.37
2018-05-04T03:17:27.494Z,5.37
2018-05-04T03:19:55.061Z,5.30
2018-05-04T03:22:22.629Z,5.14
2018-05-04T03:24:50.205Z,5.23
2018-05-04T03:27:17.775Z,5.15
2018-05-04T03:29:46.229Z,5.27
2018-05-04T03:32:14.558Z,5.14
2018-05-04T03:34:42.178Z,5.07
2018-05-04T03:37:10.679Z,5.11
2018-05-04T03:39:38.254Z,4.95
2018-05-04T03:42:06.605Z,4.88
2018-05-04T03:44:34.180Z,4.78
2018-05-04T03:47:02.678Z,4.93
2018-05-04T03:49:31.048Z,4.94
2018-05-04T03:51:59.441Z,4.93
2018-05-04T03:54:27.799Z,4.94
2018-05-04T03:57:07.202Z,4.95
2018-05-04T03:59:46.646Z,4.92
2018-05-04T04:02:25.877Z,4.95
2018-05-04T04:04:54.406Z,4.93
2018-05-04T04:07:21.974Z,5.01
2018-05-04T04:09:49.558Z,5.03
2018-05-04T04:12:17.135Z,5.12
2018-05-04T04:14:44.717Z,5.19
2018-05-04T04:17:12.334Z,5.19
2018-05-04T04:19:39.918Z,5.23
2018-05-04T04:22:07.646Z,5.23
2018-05-04T04:24:36.013Z,5.29
2018-05-04T04:27:04.421Z,5.34
2018-05-04T04:29:31.999Z,5.38
2018-05-04T04:31:59.664Z,5.44
2018-05-04T04:34:27.246Z,5.68
2018-05-04T04:36:54.831Z,5.66
2018-05-04T04:39:23.017Z,5.72
2018-05-04T04:41:50.597Z,5.81
2018-05-04T04:44:18.210Z,5.88
2018-05-04T04:46:45.818Z,5.99
2018-05-04T04:49:14.284Z,5.96
2018-05-04T04:51:45.691Z,6.04
2018-05-04T04:54:13.961Z,6.17
2018-05-04T04:56:41.554Z,6.39
2018-05-04T04:59:09.188Z,6.35
2018-05-04T05:01:36.758Z,6.42
2018-05-04T05:04:04.325Z,6.47
2018-05-04T05:06:31.893Z,6.61
2018-05-04T05:08:59.457Z,6.71
2018-05-04T05:11:27.087Z,6.85
2018-05-04T05:13:54.688Z,7.12
2018-05-04T05:16:22.265Z,7.48
2018-05-04T05:18:49.837Z,7.47
2018-05-04T05:21:17.406Z,7.51
2018-05-04T05:23:45.014Z,7.51
2018-05-04T05:26:12.613Z,7.64
2018-05-04T05:28:40.188Z,7.67
2018-05-04T05:31:07.750Z,7.76
2018-05-04T05:33:35.320Z,7.86
2018-05-04T05:36:03.857Z,8.11
2018-05-04T05:38:31.433Z,8.39
2018-05-04T05:40:59.145Z,8.56
2018-05-04T05:43:27.619Z,8.76
2018-05-04T05:45:55.184Z,8.99
2018-05-04T05:48:22.756Z,9.15
2018-05-04T05:50:50.331Z,9.43
2018-05-04T05:53:17.905Z,9.58
2018-05-04T05:55:45.532Z,9.68
2018-05-04T05:58:13.229Z,9.84
2018-05-04T06:00:40.829Z,9.97
2018-05-04T06:03:09.148Z,10.05
2018-05-04T06:05:37.434Z,10.19
2018-05-04T06:08:05.011Z,10.34
2018-05-04T06:10:32.638Z,10.53
2018-05-04T06:13:01.007Z,10.63
2018-05-04T06:15:28.631Z,10.83
2018-05-04T06:17:56.279Z,11.02
2018-05-04T06:20:23.907Z,11.09
2018-05-04T06:22:51.478Z,11.27
2018-05-04T06:25:19.054Z,11.38
2018-05-04T06:27:46.625Z,11.42
2018-05-04T06:30:14.200Z,11.53
2018-05-04T06:32:41.769Z,11.62
2018-05-04T06:35:10.292Z,11.68
2018-05-04T06:37:38.813Z,11.76
2018-05-04T06:40:06.542Z,11.83
2018-05-04T06:42:34.122Z,11.99
2018-05-04T06:45:01.693Z,12.09
2018-05-04T06:47:30.179Z,12.20
2018-05-04T06:49:58.474Z,12.28
2018-05-04T06:52:27.055Z,12.35
2018-05-04T06:54:54.628Z,12.44
2018-05-04T06:57:22.233Z,12.50
2018-05-04T06:59:50.586Z,12.63
2018-05-04T07:02:18.158Z,12.71
2018-05-04T07:04:46.649Z,12.76
2018-05-04T07:07:14.235Z,12.72
2018-05-04T07:09:41.845Z,12.85
2018-05-04T07:12:10.335Z,12.89
2018-05-04T07:14:38.657Z,12.96
2018-05-04T07:17:06.247Z,12.99
2018-05-04T07:19:33.890Z,13.13
2018-05-04T07:22:02.514Z,13.21
2018-05-04T07:24:30.033Z,13.26
2018-05-04T07:26:57.723Z,13.39
2018-05-04T07:29:25.321Z,13.46
2018-05-04T07:31:53.136Z,13.44
2018-05-04T07:34:21.646Z,13.48
2018-05-04T07:36:49.261Z,13.66
2018-05-04T07:39:16.833Z,13.70
2018-05-04T07:41:45.285Z,13.58
2018-05-04T07:44:12.866Z,13.81
2018-05-04T07:46:40.445Z,13.89
2018-05-04T07:49:08.886Z,13.77
2018-05-04T07:51:37.233Z,14.00
2018-05-04T07:54:05.685Z,14.04
2018-05-04T07:56:37.771Z,14.32
2018-05-04T07:59:05.432Z,14.32
2018-05-04T08:01:32.997Z,14.45
2018-05-04T08:04:00.737Z,14.53
2018-05-04T08:06:28.317Z,14.62
2018-05-04T08:08:56.903Z,14.69
2018-05-04T08:11:25.196Z,14.71
2018-05-04T08:13:52.770Z,14.66
2018-05-04T08:16:20.343Z,14.72
2018-05-04T08:18:47.957Z,14.81
2018-05-04T08:21:15.532Z,14.80
2018-05-04T08:23:43.153Z,14.97
2018-05-04T08:26:10.731Z,14.95
2018-05-04T08:28:38.307Z,15.03
2018-05-04T08:31:05.877Z,15.04
2018-05-04T08:33:33.669Z,15.01
2018-05-04T08:36:01.250Z,15.25
2018-05-04T08:38:28.829Z,15.32
2018-05-04T08:40:56.405Z,15.35
2018-05-04T08:43:24.029Z,15.54
2018-05-04T08:45:52.270Z,15.61
2018-05-04T08:48:19.918Z,15.36
2018-05-04T08:50:47.534Z,15.44
2018-05-04T08:53:15.115Z,15.49
2018-05-04T08:55:42.684Z,15.64
2018-05-04T08:58:10.258Z,15.79
2018-05-04T09:00:37.887Z,15.97
2018-05-04T09:03:05.537Z,16.14
2018-05-04T09:05:33.125Z,16.10
2018-05-04T09:08:00.697Z,15.94
2018-05-04T09:10:28.357Z,15.96
2018-05-04T09:12:55.936Z,16.07
2018-05-04T09:15:23.513Z,16.39
2018-05-04T09:17:51.089Z,16.45
2018-05-04T09:20:18.701Z,16.48
2018-05-04T09:22:46.314Z,16.50
2018-05-04T09:25:13.962Z,16.28
2018-05-04T09:27:44.661Z,16.28
2018-05-04T09:30:12.325Z,16.40
2018-05-04T09:32:39.899Z,16.45
2018-05-04T09:35:07.482Z,16.50
2018-05-04T09:37:35.109Z,16.41
2018-05-04T09:40:02.689Z,16.51
2018-05-04T09:42:30.297Z,16.81
2018-05-04T09:44:57.869Z,17.00
2018-05-04T09:47:25.483Z,16.68
2018-05-04T09:49:53.061Z,16.94
2018-05-04T09:52:20.633Z,17.10
2018-05-04T09:54:48.210Z,17.22
2018-05-04T09:57:15.785Z,17.27
2018-05-04T09:59:44.344Z,17.32
2018-05-04T10:02:11.945Z,17.24
2018-05-04T10:04:39.558Z,17.47
2018-05-04T10:07:07.156Z,17.52
2018-05-04T10:09:34.753Z,17.37
2018-05-04T10:12:03.113Z,17.57
2018-05-04T10:14:30.737Z,17.80
2018-05-04T10:16:59.563Z,17.91
2018-05-04T10:19:27.153Z,17.97
2018-05-04T10:21:54.787Z,18.04
2018-05-04T10:24:22.696Z,18.09
2018-05-04T10:26:50.275Z,17.68
2018-05-04T10:29:17.949Z,17.80
2018-05-04T10:31:45.646Z,17.57
2018-05-04T10:34:13.215Z,17.87
2018-05-04T10:36:40.896Z,17.70
2018-05-04T10:39:09.283Z,17.55
2018-05-04T10:41:36.939Z,17.83
2018-05-04T10:44:04.523Z,18.01
2018-05-04T10:46:32.134Z,17.97
2018-05-04T10:48:59.869Z,18.13
2018-05-04T10:51:27.453Z,18.37
2018-05-04T10:53:55.026Z,18.58
2018-05-04T10:56:22.646Z,18.73
2018-05-04T10:58:50.262Z,18.51
2018-05-04T11:01:18.529Z,18.80
2018-05-04T11:03:46.271Z,18.74
2018-05-04T11:06:13.844Z,18.12
2018-05-04T11:08:41.422Z,18.23
2018-05-04T11:11:09.016Z,18.40
2018-05-04T11:13:36.595Z,18.84
2018-05-04T11:16:04.278Z,19.06
2018-05-04T11:18:32.771Z,19.14
2018-05-04T11:21:01.091Z,19.19
2018-05-04T11:23:28.660Z,19.15
2018-05-04T11:25:56.269Z,19.01
2018-05-04T11:28:23.840Z,18.93
2018-05-04T11:30:51.458Z,18.94
2018-05-04T11:33:19.049Z,18.65
2018-05-04T11:35:46.660Z,18.55
2018-05-04T11:38:15.158Z,18.74
2018-05-04T11:40:42.736Z,18.65
2018-05-04T11:43:10.312Z,18.92
2018-05-04T11:45:37.886Z,18.92
2018-05-04T11:48:05.524Z,19.02
2018-05-04T11:50:33.096Z,19.06
2018-05-04T11:53:00.753Z,18.89
2018-05-04T11:55:28.324Z,19.20
2018-05-04T11:57:55.968Z,19.07
2018-05-04T12:00:23.589Z,19.31
2018-05-04T12:02:51.196Z,19.40
2018-05-04T12:05:18.770Z,18.86
2018-05-04T12:07:46.348Z,19.34
2018-05-04T12:10:13.917Z,19.55
2018-05-04T12:12:41.497Z,19.63
2018-05-04T12:15:09.139Z,19.61
2018-05-04T12:17:36.715Z,19.41
2018-05-04T12:20:04.294Z,19.46
2018-05-04T12:22:31.860Z,19.26
2018-05-04T12:24:59.439Z,19.09
2018-05-04T12:27:27.008Z,19.50
2018-05-04T12:29:54.583Z,19.39
2018-05-04T12:32:22.157Z,19.39
2018-05-04T12:34:49.765Z,19.54
2018-05-04T12:37:17.334Z,19.42
2018-05-04T12:39:44.905Z,19.38
2018-05-04T12:42:12.478Z,19.80
2018-05-04T12:44:40.058Z,19.72
2018-05-04T12:47:07.708Z,19.85
2018-05-04T12:49:35.234Z,20.04
2018-05-04T12:52:02.805Z,20.04
2018-05-04T12:54:30.400Z,19.87
2018-05-04T12:56:57.979Z,19.44
2018-05-04T12:59:25.555Z,19.36
2018-05-04T13:01:53.166Z,19.55
2018-05-04T13:04:20.788Z,19.57
2018-05-04T13:06:48.345Z,19.55
2018-05-04T13:09:15.920Z,19.43
2018-05-04T13:11:44.407Z,19.40
2018-05-04T13:14:12.806Z,19.38
2018-05-04T13:16:40.386Z,19.63
2018-05-04T13:19:16.734Z,19.87
2018-05-04T13:21:44.386Z,20.22
2018-05-04T13:24:11.960Z,20.18
2018-05-04T13:26:39.529Z,20.52
2018-05-04T13:29:07.103Z,20.18
2018-05-04T13:31:35.502Z,20.18
2018-05-04T13:34:03.862Z,20.25
2018-05-04T13:36:32.237Z,19.75
2018-05-04T13:38:59.806Z,19.63
2018-05-04T13:41:27.380Z,19.67
2018-05-04T13:43:54.960Z,19.71
2018-05-04T13:46:22.545Z,19.62
2018-05-04T13:48:50.133Z,19.12
2018-05-04T13:51:18.610Z,19.58
2018-05-04T13:53:46.106Z,19.86
2018-05-04T13:56:13.684Z,20.04
2018-05-04T13:58:41.256Z,20.18
2018-05-04T14:01:08.888Z,20.19
2018-05-04T14:03:36.429Z,20.46
2018-05-04T14:06:04.005Z,20.82
2018-05-04T14:08:31.574Z,20.44
2018-05-04T14:10:59.160Z,19.88
2018-05-04T14:13:26.728Z,20.39
2018-05-04T14:15:54.297Z,20.49
2018-05-04T14:18:21.871Z,20.81
2018-05-04T14:20:49.442Z,20.89
2018-05-04T14:23:17.068Z,20.78
2018-05-04T14:25:44.646Z,20.99
2018-05-04T14:28:12.277Z,21.00
2018-05-04T14:30:40.770Z,20.91
2018-05-04T14:33:08.341Z,20.94
2018-05-04T14:35:35.916Z,21.17
2018-05-04T14:38:03.489Z,21.10
2018-05-04T14:40:31.072Z,20.91
2018-05-04T14:42:58.646Z,20.92
2018-05-04T14:45:26.264Z,20.84
2018-05-04T14:47:53.839Z,21.09
2018-05-04T14:50:21.419Z,20.91
2018-05-04T14:52:49.053Z,21.14
2018-05-04T14:55:16.621Z,21.29
2018-05-04T14:57:44.201Z,21.74
2018-05-04T15:00:11.774Z,22.19
2018-05-04T15:02:39.352Z,22.68
2018-05-04T15:05:07.002Z,22.40
2018-05-04T15:07:34.625Z,23.35
2018-05-04T15:10:02.205Z,23.25
2018-05-04T15:12:30.782Z,22.91
2018-05-04T15:14:58.353Z,23.60
2018-05-04T15:17:25.926Z,23.78
2018-05-04T15:19:53.497Z,24.07
2018-05-04T15:22:21.066Z,23.92
2018-05-04T15:24:49.541Z,24.48
2018-05-04T15:27:17.130Z,24.37
2018-05-04T15:29:44.821Z,24.33
2018-05-04T15:32:12.492Z,23.27
2018-05-04T15:34:40.065Z,22.74
2018-05-04T15:37:07.685Z,22.41
2018-05-04T15:39:35.257Z,22.18
2018-05-04T15:42:02.834Z,23.01
2018-05-04T15:44:30.413Z,22.95
2018-05-04T15:46:58.869Z,23.08
2018-05-04T15:49:26.446Z,23.03
2018-05-04T15:51:59.635Z,22.63
2018-05-04T15:54:27.294Z,22.26
2018-05-04T15:56:54.889Z,21.74
2018-05-04T15:59:23.142Z,21.04
2018-05-04T16:01:50.711Z,20.33
2018-05-04T16:04:18.390Z,19.92
2018-05-04T16:06:45.970Z,19.57
2018-05-04T16:09:13.543Z,19.44
2018-05-04T16:11:41.121Z,19.20
2018-05-04T16:14:08.733Z,19.08
2018-05-04T16:16:36.301Z,18.96
2018-05-04T16:19:03.921Z,18.99
2018-05-04T16:21:31.497Z,18.82
2018-05-04T16:23:59.065Z,18.75
2018-05-04T16:26:26.642Z,18.70
2018-05-04T16:28:54.296Z,18.66
2018-05-04T16:31:21.820Z,18.59
2018-05-04T16:33:49.384Z,18.55
2018-05-04T16:36:16.984Z,18.34
2018-05-04T16:38:44.599Z,18.27
2018-05-04T16:41:12.165Z,18.12
2018-05-04T16:43:39.740Z,18.08
2018-05-04T16:46:07.312Z,18.08
2018-05-04T16:48:40.639Z,17.85
2018-05-04T16:51:08.245Z,17.86
2018-05-04T16:53:35.821Z,17.63
2018-05-04T16:56:03.393Z,17.52
2018-05-04T16:58:30.964Z,17.44
2018-05-04T17:00:58.535Z,17.49
2018-05-04T17:03:26.126Z,17.44
2018-05-04T17:05:53.702Z,17.32
2018-05-04T17:08:22.191Z,17.15
2018-05-04T17:10:50.461Z,17.12
2018-05-04T17:13:18.038Z,17.13
2018-05-04T17:15:45.621Z,17.05
2018-05-04T17:18:13.198Z,17.03
2018-05-04T17:20:40.775Z,17.02
2018-05-04T17:23:08.360Z,17.01
2018-05-04T17:25:35.934Z,16.95
2018-05-04T17:28:03.506Z,16.64
2018-05-04T17:30:31.087Z,16.43
2018-05-04T17:32:58.730Z,16.50
2018-05-04T17:35:27.266Z,16.49
2018-05-04T17:37:54.844Z,16.33
2018-05-04T17:40:22.477Z,16.21
2018-05-04T17:42:50.054Z,16.00
2018-05-04T17:45:17.634Z,16.02
2018-05-04T17:47:45.210Z,15.82
2018-05-04T17:50:12.787Z,15.58
2018-05-04T17:52:40.361Z,15.41
2018-05-04T17:55:07.996Z,15.26
2018-05-04T17:57:35.538Z,15.20
2018-05-04T18:00:03.114Z,15.14
2018-05-04T18:02:31.606Z,15.04
2018-05-04T18:04:59.191Z,14.86
2018-05-04T18:07:26.765Z,14.76
2018-05-04T18:09:54.343Z,14.74
2018-05-04T18:12:21.918Z,14.60
2018-05-04T18:14:49.515Z,14.51
2018-05-04T18:17:17.208Z,14.33
2018-05-04T18:19:44.770Z,14.18
2018-05-04T18:22:12.341Z,14.04
2018-05-04T18:24:39.914Z,13.92
2018-05-04T18:27:07.556Z,13.86
2018-05-04T18:29:35.186Z,13.67
2018-05-04T18:32:02.762Z,13.50
2018-05-04T18:34:30.343Z,13.63
2018-05-04T18:36:57.920Z,13.44
2018-05-04T18:39:25.495Z,13.35
2018-05-04T18:41:53.073Z,13.17
2018-05-04T18:44:20.650Z,13.06
2018-05-04T18:46:48.351Z,12.96
2018-05-04T18:49:15.980Z,12.83
2018-05-04T18:51:43.558Z,12.75
2018-05-04T18:54:11.203Z,12.64
2018-05-04T18:56:38.866Z,12.52
2018-05-04T18:59:06.447Z,12.43
2018-05-04T19:01:34.039Z,12.32
2018-05-04T19:04:01.617Z,12.22
2018-05-04T19:06:29.197Z,12.15
2018-05-04T19:08:56.927Z,12.06
2018-05-04T19:11:25.325Z,11.98
2018-05-04T19:13:52.901Z,11.94
2018-05-04T19:16:20.478Z,11.98
2018-05-04T19:18:48.057Z,12.35
2018-05-04T19:21:15.638Z,12.32
2018-05-04T19:23:44.022Z,12.24
2018-05-04T19:26:11.634Z,12.31
2018-05-04T19:28:39.213Z,12.24
2018-05-04T19:31:06.897Z,12.24
2018-05-04T19:33:34.480Z,12.21
2018-05-04T19:36:02.050Z,12.38
2018-05-04T19:38:29.663Z,12.31
2018-05-04T19:40:57.241Z,12.31
2018-05-04T19:43:24.809Z,12.24
2018-05-04T19:45:53.370Z,12.24
2018-05-04T19:48:20.949Z,12.23
2018-05-04T19:50:48.614Z,12.16
2018-05-04T19:53:16.191Z,12.21
2018-05-04T19:55:43.769Z,12.22
2018-05-04T19:58:11.347Z,12.31
2018-05-04T20:00:38.975Z,12.19
2018-05-04T20:03:06.642Z,12.15
2018-05-04T20:05:35.138Z,11.97
2018-05-04T20:08:02.714Z,11.83
2018-05-04T20:10:30.290Z,11.89
2018-05-04T20:12:57.866Z,11.92
2018-05-04T20:15:25.514Z,11.79
2018-05-04T20:17:53.092Z,11.72
2018-05-04T20:20:20.701Z,11.66
2018-05-04T20:22:48.282Z,11.70
2018-05-04T20:25:16.630Z,11.79
2018-05-04T20:27:44.218Z,11.75
2018-05-04T20:30:11.854Z,11.77
2018-05-04T20:32:39.425Z,11.66
2018-05-04T20:35:07.002Z,11.61
2018-05-04T20:37:34.676Z,11.57
2018-05-04T20:40:02.222Z,11.50
2018-05-04T20:42:29.796Z,11.36
2018-05-04T20:44:57.373Z,11.41
2018-05-04T20:47:25.065Z,11.35
2018-05-04T20:49:52.734Z,11.25
2018-05-04T20:52:20.316Z,11.26
2018-05-04T20:54:47.899Z,11.07
2018-05-04T20:57:15.488Z,11.22
2018-05-04T20:59:43.067Z,11.12
2018-05-04T21:02:11.578Z,11.05
2018-05-04T21:04:39.154Z,10.93
2018-05-04T21:07:06.736Z,10.91
2018-05-04T21:09:34.321Z,10.93
2018-05-04T21:12:02.797Z,10.78
2018-05-04T21:14:31.185Z,10.71
2018-05-04T21:16:59.611Z,10.57
2018-05-04T21:19:27.191Z,10.50
2018-05-04T21:21:55.569Z,10.61
2018-05-04T21:24:23.937Z,10.53
2018-05-04T21:26:52.325Z,10.39
2018-05-04T21:29:19.906Z,10.49
2018-05-04T21:31:47.492Z,10.46
2018-05-04T21:34:16.050Z,10.28
2018-05-04T21:36:43.627Z,10.14
2018-05-04T21:39:11.202Z,10.05
2018-05-04T21:41:39.549Z,9.99
2018-05-04T21:44:07.122Z,9.92
2018-05-04T21:46:34.701Z,9.73
2018-05-04T21:49:02.349Z,9.62
2018-05-04T21:51:29.886Z,9.63
2018-05-04T21:53:58.818Z,9.56
2018-05-04T21:56:26.387Z,9.54
2018-05-04T21:58:53.969Z,9.49
2018-05-04T22:01:23.063Z,9.53
2018-05-04T22:03:52.080Z,9.39
2018-05-04T22:06:19.797Z,9.51
2018-05-04T22:08:49.461Z,9.54
2018-05-04T22:11:17.473Z,9.47
2018-05-04T22:13:46.403Z,9.41
2018-05-04T22:16:14.920Z,9.49
2018-05-04T22:18:43.468Z,9.48
2018-05-04T22:21:12.725Z,9.37
2018-05-04T22:23:40.430Z,9.29
2018-05-04T22:26:08.002Z,9.14
2018-05-04T22:28:35.568Z,9.08
2018-05-04T22:31:03.137Z,9.11
2018-05-04T22:33:30.709Z,9.11
2018-05-04T22:35:58.277Z,8.90
2018-05-04T22:38:26.805Z,8.87
2018-05-04T22:40:54.415Z,8.89
2018-05-04T22:43:21.987Z,8.88
2018-05-04T22:45:49.601Z,8.74
2018-05-04T22:48:18.070Z,8.75
2018-05-04T22:50:45.640Z,8.65
2018-05-04T22:53:13.218Z,8.63
2018-05-04T22:55:40.867Z,8.68
2018-05-04T22:58:08.438Z,8.61
2018-05-04T23:00:36.013Z,8.56
2018-05-04T23:03:04.532Z,8.54
2018-05-04T23:05:32.890Z,8.50
2018-05-04T23:08:01.261Z,8.38
2018-05-04T23:10:28.872Z,8.43
2018-05-04T23:12:56.489Z,8.29
2018-05-04T23:15:24.063Z,8.29
2018-05-04T23:17:51.634Z,8.11
2018-05-04T23:20:19.218Z,8.10
2018-05-04T23:22:46.829Z,7.94
2018-05-04T23:25:14.399Z,7.90
2018-05-04T23:27:41.976Z,7.96
2018-05-04T23:30:10.448Z,7.88
2018-05-04T23:32:38.030Z,7.85
2018-05-04T23:35:05.624Z,7.66
2018-05-04T23:37:34.091Z,7.67
2018-05-04T23:40:01.657Z,7.57
2018-05-04T23:42:29.226Z,7.47
2018-05-04T23:44:56.891Z,7.34
2018-05-04T23:47:24.468Z,7.25
2018-05-04T23:49:52.077Z,7.22
2018-05-04T23:52:19.648Z,7.13
2018-05-04T23:54:47.381Z,7.08
2018-05-04T23:57:14.958Z,7.03
2018-05-04T23:59:42.526Z,6.91
